createdAt,value
2018-08-28T00:00:43.116Z,68.920898
2018-08-28T00:01:59.381Z,68.823242
2018-08-28T00:03:15.310Z,68.621826
2018-08-28T00:04:31.277Z,68.518066
2018-08-28T00:05:47.274Z,68.518066
2018-08-28T00:07:03.275Z,68.719482
2018-08-28T00:08:19.219Z,68.518066
2018-08-28T00:09:35.244Z,68.621826
2018-08-28T00:10:51.195Z,68.518066
2018-08-28T00:12:07.194Z,68.31665
2018-08-28T00:13:23.128Z,68.31665
2018-08-28T00:14:39.092Z,68.218994
2018-08-28T00:15:55.137Z,68.017578
2018-08-28T00:17:11.300Z,68.017578
2018-08-28T00:18:27.178Z,68.218994
2018-08-28T00:19:43.246Z,68.121338
2018-08-28T00:20:59.245Z,68.42041
2018-08-28T00:22:15.311Z,68.621826
2018-08-28T00:23:31.278Z,68.823242
2018-08-28T00:24:47.221Z,68.719482
2018-08-28T00:26:03.209Z,68.719482
2018-08-28T00:27:19.174Z,68.719482
2018-08-28T00:28:35.160Z,68.719482
2018-08-28T00:29:51.214Z,68.621826
2018-08-28T00:31:07.212Z,68.518066
2018-08-28T00:32:23.250Z,68.823242
2018-08-28T00:33:39.304Z,68.719482
2018-08-28T00:34:55.563Z,68.621826
2018-08-28T00:36:11.574Z,68.621826
2018-08-28T00:37:27.656Z,68.920898
2018-08-28T00:38:43.608Z,69.122314
2018-08-28T00:39:59.560Z,69.219971
2018-08-28T00:41:15.471Z,69.555664
2018-08-28T00:42:31.542Z,69.659424
2018-08-28T00:43:47.605Z,69.555664
2018-08-28T00:45:03.618Z,69.458008
2018-08-28T00:46:19.615Z,69.354248
2018-08-28T00:47:35.542Z,69.458008
2018-08-28T00:48:51.468Z,69.354248
2018-08-28T00:50:07.533Z,69.555664
2018-08-28T00:51:23.516Z,69.659424
2018-08-28T00:52:39.532Z,69.555664
2018-08-28T00:53:55.613Z,69.659424
2018-08-28T00:55:11.691Z,69.659424
2018-08-28T00:56:27.706Z,69.555664
2018-08-28T00:57:43.674Z,69.659424
2018-08-28T00:58:59.583Z,69.854736
2018-08-28T01:00:15.539Z,69.958496
2018-08-28T01:01:31.487Z,69.75708
2018-08-28T01:02:47.454Z,69.958496
2018-08-28T01:04:03.467Z,70.257568
2018-08-28T01:05:19.458Z,70.257568
2018-08-28T01:06:35.572Z,70.056152
2018-08-28T01:07:51.474Z,69.854736
2018-08-28T01:09:07.470Z,69.75708
2018-08-28T01:10:23.468Z,69.854736
2018-08-28T01:11:39.351Z,70.056152
2018-08-28T01:12:55.255Z,70.159912
2018-08-28T01:14:11.297Z,70.056152
2018-08-28T01:15:27.355Z,69.854736
2018-08-28T01:16:43.266Z,69.958496
2018-08-28T01:17:59.170Z,70.361328
2018-08-28T01:19:15.237Z,70.495605
2018-08-28T01:20:31.260Z,70.361328
2018-08-28T01:21:47.151Z,70.697021
2018-08-28T01:23:03.255Z,70.458984
2018-08-28T01:24:19.283Z,70.159912
2018-08-28T01:25:35.278Z,70.361328
2018-08-28T01:26:51.406Z,70.056152
2018-08-28T01:28:07.312Z,70.257568
2018-08-28T01:29:23.231Z,70.159912
2018-08-28T01:30:39.300Z,70.257568
2018-08-28T01:31:55.221Z,70.159912
2018-08-28T01:33:11.150Z,70.056152
2018-08-28T01:34:27.066Z,69.958496
2018-08-28T01:35:42.985Z,70.159912
2018-08-28T01:36:58.899Z,70.562744
2018-08-28T01:38:14.813Z,70.892334
2018-08-28T01:39:31.845Z,70.758057
2018-08-28T01:40:47.786Z,70.6604
2018-08-28T01:42:03.714Z,70.562744
2018-08-28T01:43:19.763Z,70.758057
2018-08-28T01:44:35.774Z,70.6604
2018-08-28T01:45:51.750Z,70.562744
2018-08-28T01:47:07.908Z,70.892334
2018-08-28T01:48:23.949Z,70.6604
2018-08-28T01:49:39.862Z,70.892334
2018-08-28T01:50:55.814Z,70.996094
2018-08-28T01:52:11.764Z,70.892334
2018-08-28T01:53:27.673Z,70.458984
2018-08-28T01:54:43.751Z,70.159912
2018-08-28T01:55:59.673Z,70.056152
2018-08-28T01:57:15.605Z,70.19043
2018-08-28T01:58:31.509Z,70.056152
2018-08-28T01:59:47.411Z,69.989014
2018-08-28T02:01:03.447Z,69.989014
2018-08-28T02:02:19.481Z,69.592285
2018-08-28T02:03:35.514Z,69.555664
2018-08-28T02:04:51.397Z,69.354248
2018-08-28T02:06:07.313Z,69.787598
2018-08-28T02:07:23.330Z,70.794678
2018-08-28T02:08:39.263Z,70.794678
2018-08-28T02:09:55.196Z,70.892334
2018-08-28T02:11:11.245Z,70.996094
2018-08-28T02:12:27.164Z,70.996094
2018-08-28T02:13:44.008Z,71.09375
2018-08-28T02:14:59.916Z,71.19751
2018-08-28T02:16:15.858Z,70.892334
2018-08-28T02:17:31.824Z,70.892334
2018-08-28T02:18:47.749Z,70.794678
2018-08-28T02:20:03.788Z,70.593262
2018-08-28T02:21:19.914Z,70.495605
2018-08-28T02:22:35.851Z,70.294189
2018-08-28T02:23:51.835Z,70.19043
2018-08-28T02:25:07.885Z,69.958496
2018-08-28T02:26:23.822Z,69.989014
2018-08-28T02:27:39.756Z,70.19043
2018-08-28T02:28:55.660Z,70.391846
2018-08-28T02:30:11.648Z,70.19043
2018-08-28T02:31:27.528Z,70.391846
2018-08-28T02:32:43.497Z,70.593262
2018-08-28T02:33:59.473Z,70.593262
2018-08-28T02:35:15.565Z,70.593262
2018-08-28T02:36:31.566Z,70.697021
2018-08-28T02:37:47.530Z,70.593262
2018-08-28T02:39:03.521Z,70.593262
2018-08-28T02:40:19.431Z,70.526123
2018-08-28T02:41:35.337Z,70.391846
2018-08-28T02:42:51.351Z,70.428467
2018-08-28T02:44:07.295Z,70.092773
2018-08-28T02:45:23.203Z,70.428467
2018-08-28T02:46:39.202Z,69.989014
2018-08-28T02:47:55.331Z,70.123291
2018-08-28T02:49:11.383Z,69.921875
2018-08-28T02:50:27.287Z,70.123291
2018-08-28T02:51:43.218Z,69.921875
2018-08-28T02:52:59.144Z,69.921875
2018-08-28T02:54:15.075Z,69.921875
2018-08-28T02:55:31.035Z,69.921875
2018-08-28T02:56:47.120Z,69.720459
2018-08-28T02:58:03.155Z,69.622803
2018-08-28T02:59:19.090Z,69.488525
2018-08-28T03:00:35.039Z,69.287109
2018-08-28T03:01:50.964Z,69.085693
2018-08-28T03:03:07.099Z,69.189453
2018-08-28T03:04:23.032Z,69.085693
2018-08-28T03:05:38.980Z,69.085693
2018-08-28T03:06:54.934Z,68.884277
2018-08-28T03:08:10.857Z,69.085693
2018-08-28T03:09:26.798Z,69.32373
2018-08-28T03:10:42.844Z,69.085693
2018-08-28T03:11:58.856Z,69.085693
2018-08-28T03:13:14.885Z,68.682861
2018-08-28T03:14:30.957Z,68.988037
2018-08-28T03:15:46.873Z,69.018555
2018-08-28T03:17:02.906Z,69.122314
2018-08-28T03:18:18.853Z,69.219971
2018-08-28T03:19:34.764Z,69.32373
2018-08-28T03:20:50.698Z,69.421387
2018-08-28T03:22:06.704Z,69.085693
2018-08-28T03:23:22.735Z,69.32373
2018-08-28T03:24:38.642Z,69.519043
2018-08-28T03:25:54.706Z,69.519043
2018-08-28T03:27:10.753Z,69.921875
2018-08-28T03:28:26.644Z,69.720459
2018-08-28T03:29:42.627Z,69.622803
2018-08-28T03:30:58.584Z,69.519043
2018-08-28T03:32:14.564Z,69.519043
2018-08-28T03:33:30.471Z,69.32373
2018-08-28T03:34:46.373Z,69.219971
2018-08-28T03:36:02.366Z,69.32373
2018-08-28T03:37:19.370Z,69.519043
2018-08-28T03:38:35.276Z,69.219971
2018-08-28T03:39:51.188Z,69.219971
2018-08-28T03:41:07.121Z,69.018555
2018-08-28T03:42:23.088Z,69.018555
2018-08-28T03:43:39.176Z,69.018555
2018-08-28T03:44:55.100Z,69.018555
2018-08-28T03:46:11.194Z,69.219971
2018-08-28T03:47:27.175Z,69.018555
2018-08-28T03:48:43.102Z,68.719482
2018-08-28T03:49:59.025Z,68.920898
2018-08-28T03:51:15.014Z,69.354248
2018-08-28T03:52:30.954Z,69.354248
2018-08-28T03:53:46.915Z,69.354248
2018-08-28T03:55:03.066Z,69.250488
2018-08-28T03:56:19.084Z,69.122314
2018-08-28T03:57:35.003Z,68.920898
2018-08-28T03:58:50.921Z,69.354248
2018-08-28T04:00:06.858Z,69.122314
2018-08-28T04:01:22.771Z,69.219971
2018-08-28T04:02:38.710Z,69.519043
2018-08-28T04:03:54.732Z,70.056152
2018-08-28T04:05:10.721Z,70.6604
2018-08-28T04:06:26.702Z,70.76416
2018-08-28T04:07:42.668Z,71.160889
2018-08-28T04:08:58.729Z,71.398926
2018-08-28T04:10:14.745Z,72.003174
2018-08-28T04:11:31.691Z,72.003174
2018-08-28T04:12:47.684Z,72.003174
2018-08-28T04:14:03.636Z,72.10083
2018-08-28T04:15:19.742Z,72.302246
2018-08-28T04:16:35.651Z,71.966553
2018-08-28T04:17:51.584Z,72.070312
2018-08-28T04:19:07.579Z,72.406006
2018-08-28T04:20:24.008Z,72.906494
2018-08-28T04:24:36.642Z,72.503662
2018-08-28T04:25:52.582Z,72.10083
2018-08-28T04:27:08.604Z,72.20459
2018-08-28T04:28:24.607Z,72.302246
2018-08-28T04:29:40.521Z,72.302246
2018-08-28T04:30:56.587Z,71.801758
2018-08-28T04:32:12.519Z,72.003174
2018-08-28T04:33:28.482Z,72.20459
2018-08-28T04:34:44.415Z,71.899414
2018-08-28T04:36:00.395Z,71.600342
2018-08-28T04:37:16.498Z,71.398926
2018-08-28T04:38:32.570Z,71.398926
2018-08-28T04:39:48.500Z,71.496582
2018-08-28T04:41:04.469Z,71.496582
2018-08-28T04:42:20.466Z,71.899414
2018-08-28T04:43:36.467Z,72.235107
2018-08-28T04:44:52.379Z,71.801758
2018-08-28T04:46:08.327Z,71.697998
2018-08-28T04:47:24.408Z,71.801758
2018-08-28T04:48:40.337Z,71.936035
2018-08-28T04:49:56.289Z,71.936035
2018-08-28T04:51:12.242Z,71.832275
2018-08-28T04:52:28.213Z,71.734619
2018-08-28T04:53:44.124Z,71.496582
2018-08-28T04:55:00.112Z,71.398926
2018-08-28T04:56:15.990Z,71.19751
2018-08-28T04:57:31.925Z,71.19751
2018-08-28T04:58:47.959Z,71.09375
2018-08-28T05:00:03.916Z,70.794678
2018-08-28T05:01:19.955Z,70.996094
2018-08-28T05:02:35.882Z,71.09375
2018-08-28T05:03:51.795Z,70.996094
2018-08-28T05:05:07.758Z,70.996094
2018-08-28T05:06:23.779Z,70.892334
2018-08-28T05:07:39.705Z,70.892334
2018-08-28T05:08:56.264Z,71.295166
2018-08-28T05:10:12.250Z,71.801758
2018-08-28T05:11:28.165Z,71.801758
2018-08-28T05:12:44.259Z,72.302246
2018-08-28T05:14:00.188Z,72.10083
2018-08-28T05:15:16.114Z,72.003174
2018-08-28T05:16:32.203Z,71.801758
2018-08-28T05:17:48.201Z,71.801758
2018-08-28T05:19:04.287Z,72.003174
2018-08-28T05:20:20.215Z,71.801758
2018-08-28T05:21:36.130Z,71.398926
2018-08-28T05:22:52.133Z,71.362305
2018-08-28T05:24:08.124Z,71.398926
2018-08-28T05:25:24.041Z,71.160889
2018-08-28T05:26:40.045Z,71.09375
2018-08-28T05:27:55.980Z,71.295166
2018-08-28T05:29:11.930Z,71.295166
2018-08-28T05:30:28.118Z,71.063232
2018-08-28T05:31:43.990Z,70.959473
2018-08-28T05:33:00.041Z,71.063232
2018-08-28T05:34:15.999Z,71.19751
2018-08-28T05:35:31.923Z,71.19751
2018-08-28T05:36:47.913Z,71.063232
2018-08-28T05:38:04.014Z,70.861816
2018-08-28T05:39:19.931Z,70.6604
2018-08-28T05:40:35.828Z,70.159912
2018-08-28T05:41:51.756Z,70.458984
2018-08-28T05:43:07.904Z,70.257568
2018-08-28T05:44:23.896Z,70.257568
2018-08-28T05:45:39.894Z,70.159912
2018-08-28T05:46:56.861Z,70.361328
2018-08-28T05:48:12.825Z,70.159912
2018-08-28T05:49:28.940Z,70.056152
2018-08-28T05:50:44.844Z,69.720459
2018-08-28T05:52:00.893Z,69.622803
2018-08-28T05:53:16.821Z,69.622803
2018-08-28T05:54:32.869Z,69.32373
2018-08-28T05:55:48.834Z,69.219971
2018-08-28T05:57:04.792Z,69.354248
2018-08-28T05:58:20.877Z,68.951416
2018-08-28T05:59:36.895Z,68.920898
2018-08-28T06:00:53.008Z,68.719482
2018-08-28T06:02:09.113Z,68.615723
2018-08-28T06:03:25.344Z,68.414307
2018-08-28T06:04:41.218Z,67.614746
2018-08-28T06:05:57.267Z,67.510986
2018-08-28T06:07:13.218Z,67.108154
2018-08-28T06:08:29.211Z,66.711426
2018-08-28T06:09:45.397Z,66.473389
2018-08-28T06:11:01.368Z,66.711426
2018-08-28T06:12:17.464Z,66.473389
2018-08-28T06:13:33.616Z,66.174316
2018-08-28T06:14:49.743Z,65.472412
2018-08-28T06:16:05.648Z,65.17334
2018-08-28T06:17:21.600Z,64.770508
2018-08-28T06:18:37.535Z,64.666748
2018-08-28T06:19:53.466Z,64.666748
2018-08-28T06:21:09.396Z,64.569092
2018-08-28T06:22:25.398Z,64.569092
2018-08-28T06:23:41.395Z,64.666748
2018-08-28T06:24:57.405Z,64.569092
2018-08-28T06:26:13.427Z,64.16626
2018-08-28T06:27:29.401Z,63.964844
2018-08-28T06:28:45.449Z,63.531494
2018-08-28T06:30:01.432Z,63.262939
2018-08-28T06:31:17.395Z,63.262939
2018-08-28T06:32:33.367Z,62.561035
2018-08-28T06:33:49.423Z,62.158203
2018-08-28T06:35:05.424Z,61.352539
2018-08-28T06:36:21.465Z,61.352539
2018-08-28T06:37:37.424Z,60.821533
2018-08-28T06:38:53.352Z,60.522461
2018-08-28T06:40:09.320Z,60.321045
2018-08-28T06:41:25.258Z,60.021973
2018-08-28T06:42:41.226Z,59.716797
2018-08-28T06:43:57.245Z,60.119629
2018-08-28T06:45:13.145Z,59.820557
2018-08-28T06:46:29.176Z,59.118652
2018-08-28T06:47:45.232Z,59.118652
2018-08-28T06:49:01.175Z,58.917236
2018-08-28T06:50:17.121Z,59.191895
2018-08-28T06:51:33.056Z,59.191895
2018-08-28T06:52:49.087Z,59.692383
2018-08-28T06:54:05.035Z,59.893799
2018-08-28T06:55:21.132Z,59.393311
2018-08-28T06:56:37.155Z,59.393311
2018-08-28T06:57:53.245Z,59.289551
2018-08-28T06:59:09.267Z,59.088135
2018-08-28T07:00:25.295Z,59.088135
2018-08-28T07:01:41.211Z,59.063721
2018-08-28T07:02:57.154Z,59.191895
2018-08-28T07:04:13.092Z,59.362793
2018-08-28T07:05:29.057Z,59.460449
2018-08-28T07:06:45.175Z,59.661865
2018-08-28T07:08:01.294Z,59.863281
2018-08-28T07:09:17.221Z,59.436035
2018-08-28T07:10:33.245Z,59.637451
2018-08-28T07:11:50.187Z,60.03418
2018-08-28T07:13:06.126Z,59.832764
2018-08-28T07:14:22.171Z,59.033203
2018-08-28T07:15:38.190Z,58.831787
2018-08-28T07:16:54.177Z,58.428955
2018-08-28T07:18:10.125Z,58.331299
2018-08-28T07:19:26.194Z,58.203125
2018-08-28T07:20:42.086Z,58.203125
2018-08-28T07:21:58.137Z,58.203125
2018-08-28T07:23:14.097Z,58.300781
2018-08-28T07:24:30.089Z,58.300781
2018-08-28T07:25:46.199Z,58.203125
2018-08-28T07:27:02.071Z,58.605957
2018-08-28T07:28:18.099Z,58.703613
2018-08-28T07:29:34.158Z,58.905029
2018-08-28T07:30:50.106Z,58.935547
2018-08-28T07:32:06.024Z,58.807373
2018-08-28T07:33:22.028Z,59.002686
2018-08-28T07:34:38.134Z,58.905029
2018-08-28T07:35:54.146Z,58.703613
2018-08-28T07:37:10.166Z,58.605957
2018-08-28T07:38:26.264Z,59.002686
2018-08-28T07:39:42.263Z,58.905029
2018-08-28T07:40:58.205Z,58.905029
2018-08-28T07:42:14.171Z,58.605957
2018-08-28T07:43:30.079Z,58.905029
2018-08-28T07:44:46.202Z,58.404541
2018-08-28T07:46:02.191Z,58.276367
2018-08-28T07:47:18.103Z,58.178711
2018-08-28T07:48:34.041Z,57.977295
2018-08-28T07:49:49.989Z,57.678223
2018-08-28T07:51:05.985Z,58.178711
2018-08-28T07:52:21.981Z,57.373047
2018-08-28T07:53:45.106Z,57.678223
2018-08-28T07:55:01.026Z,57.244873
2018-08-28T07:56:17.038Z,57.244873
2018-08-28T07:57:33.057Z,56.549072
2018-08-28T07:58:49.093Z,56.347656
2018-08-28T08:00:05.109Z,55.847168
2018-08-28T08:01:21.084Z,56.121826
2018-08-28T08:02:37.102Z,55.81665
2018-08-28T08:03:53.133Z,55.621338
2018-08-28T08:05:09.037Z,55.493164
2018-08-28T08:06:25.161Z,55.194092
2018-08-28T08:07:41.127Z,55.395508
2018-08-28T08:08:57.028Z,55.566406
2018-08-28T08:10:13.121Z,55.065918
2018-08-28T08:11:29.043Z,54.992676
2018-08-28T08:12:45.115Z,54.89502
2018-08-28T08:14:01.181Z,54.992676
2018-08-28T08:15:17.186Z,54.766846
2018-08-28T08:16:33.114Z,55.169678
2018-08-28T08:17:49.042Z,54.541016
2018-08-28T08:19:05.055Z,54.541016
2018-08-28T08:20:21.171Z,54.3396
2018-08-28T08:21:37.198Z,54.241943
2018-08-28T08:22:53.168Z,53.942871
2018-08-28T08:24:09.222Z,54.040527
2018-08-28T08:25:25.217Z,54.443359
2018-08-28T08:26:41.236Z,54.016113
2018-08-28T08:27:57.281Z,53.814697
2018-08-28T08:29:13.220Z,53.887939
2018-08-28T08:30:29.280Z,53.192139
2018-08-28T08:31:45.320Z,52.91748
2018-08-28T08:33:01.277Z,52.618408
2018-08-28T08:34:17.308Z,52.716064
2018-08-28T08:35:33.271Z,52.593994
2018-08-28T08:36:49.225Z,52.789307
2018-08-28T08:38:05.347Z,52.893066
2018-08-28T08:39:21.303Z,52.069092
2018-08-28T08:40:37.396Z,52.270508
2018-08-28T08:41:53.505Z,52.166748
2018-08-28T08:43:09.424Z,51.672363
2018-08-28T08:44:25.524Z,51.77002
2018-08-28T08:45:41.446Z,51.89209
2018-08-28T08:46:57.433Z,52.191162
2018-08-28T08:48:13.434Z,51.971436
2018-08-28T08:49:31.183Z,52.069092
2018-08-28T08:50:47.183Z,51.544189
2018-08-28T08:52:03.186Z,52.044678
2018-08-28T08:53:19.157Z,51.544189
2018-08-28T08:54:36.260Z,51.049805
2018-08-28T08:55:52.319Z,51.147461
2018-08-28T08:57:08.311Z,51.147461
2018-08-28T08:58:24.304Z,50.3479
2018-08-28T08:59:40.242Z,50.848389
2018-08-28T09:00:56.159Z,50.946045
2018-08-28T09:02:12.233Z,50.323486
2018-08-28T09:03:28.285Z,50.323486
2018-08-28T09:04:44.247Z,50.323486
2018-08-28T09:06:00.337Z,50.427246
2018-08-28T09:07:16.254Z,50
2018-08-28T09:08:32.225Z,50.22583
2018-08-28T09:09:48.261Z,50.323486
2018-08-28T09:11:04.185Z,50.299072
2018-08-28T09:12:20.163Z,49.804688
2018-08-28T09:13:36.122Z,49.804688
2018-08-28T09:14:52.098Z,49.902344
2018-08-28T09:16:08.080Z,49.676514
2018-08-28T09:17:24.010Z,50.274658
2018-08-28T09:18:40.105Z,49.182129
2018-08-28T09:19:56.228Z,49.084473
2018-08-28T09:21:12.291Z,49.182129
2018-08-28T09:22:28.200Z,49.780273
2018-08-28T09:23:44.154Z,49.554443
2018-08-28T09:25:00.105Z,49.755859
2018-08-28T09:26:16.226Z,48.858643
2018-08-28T09:27:32.151Z,49.255371
2018-08-28T09:28:48.145Z,49.554443
2018-08-28T09:30:04.158Z,49.255371
2018-08-28T09:31:20.289Z,48.486328
2018-08-28T09:32:36.327Z,52.490234
2018-08-28T09:33:52.258Z,53.662109
2018-08-28T09:35:08.162Z,54.211426
2018-08-28T09:36:24.205Z,55.010986
2018-08-28T09:37:40.109Z,55.804443
2018-08-28T09:38:56.160Z,55.908203
2018-08-28T09:40:12.174Z,56.329346
2018-08-28T09:41:28.313Z,56.555176
2018-08-28T09:42:44.279Z,56.854248
2018-08-28T09:44:00.225Z,56.958008
2018-08-28T09:45:16.183Z,57.556152
2018-08-28T09:46:32.200Z,56.329346
2018-08-28T09:47:48.119Z,55.957031
2018-08-28T09:49:04.222Z,56.158447
2018-08-28T09:50:20.252Z,56.433105
2018-08-28T09:51:37.180Z,55.206299
2018-08-28T09:52:53.098Z,54.437256
2018-08-28T09:54:09.029Z,53.741455
2018-08-28T09:55:25.050Z,54.040527
2018-08-28T09:56:41.162Z,53.240967
2018-08-28T09:57:57.038Z,52.441406
2018-08-28T09:59:12.960Z,53.240967
2018-08-28T10:00:29.060Z,52.844238
2018-08-28T10:01:45.178Z,53.338623
2018-08-28T10:03:01.251Z,53.637695
2018-08-28T10:04:17.223Z,53.240967
2018-08-28T10:05:33.241Z,53.637695
2018-08-28T10:06:49.199Z,53.710938
2018-08-28T10:08:05.260Z,53.936768
2018-08-28T10:09:21.221Z,54.138184
2018-08-28T10:10:37.168Z,54.736328
2018-08-28T10:11:53.163Z,54.638672
2018-08-28T10:13:09.081Z,54.138184
2018-08-28T10:14:25.145Z,54.3396
2018-08-28T10:15:41.225Z,53.442383
2018-08-28T10:16:57.130Z,53.839111
2018-08-28T10:18:13.147Z,53.613281
2018-08-28T10:19:29.093Z,53.112793
2018-08-28T10:20:45.005Z,52.91748
2018-08-28T10:22:00.951Z,52.545166
2018-08-28T10:23:16.930Z,52.618408
2018-08-28T10:24:32.933Z,53.515625
2018-08-28T10:25:49.041Z,53.912354
2018-08-28T10:27:05.063Z,54.510498
2018-08-28T10:28:21.061Z,53.839111
2018-08-28T10:29:37.058Z,53.515625
2018-08-28T10:30:52.983Z,52.593994
2018-08-28T10:32:08.954Z,52.593994
2018-08-28T10:33:24.929Z,52.392578
2018-08-28T10:34:40.957Z,51.971436
2018-08-28T10:35:56.934Z,52.490234
2018-08-28T10:38:53.787Z,52.667236
2018-08-28T10:40:09.695Z,53.564453
2018-08-28T10:41:25.742Z,53.985596
2018-08-28T10:42:41.798Z,54.058838
2018-08-28T10:43:57.837Z,52.294922
2018-08-28T10:45:13.864Z,53.613281
2018-08-28T10:46:29.871Z,54.309082
2018-08-28T10:47:45.768Z,53.515625
2018-08-28T10:49:01.746Z,53.985596
2018-08-28T10:50:17.701Z,53.192139
2018-08-28T10:51:33.638Z,53.78418
2018-08-28T10:52:49.673Z,54.083252
2018-08-28T10:54:05.648Z,53.491211
2018-08-28T10:55:21.612Z,53.460693
2018-08-28T10:56:37.705Z,53.265381
2018-08-28T10:57:53.669Z,53.564453
2018-08-28T10:59:09.630Z,53.833008
2018-08-28T11:00:25.616Z,52.142334
2018-08-28T11:01:41.630Z,51.470947
2018-08-28T11:02:57.738Z,52.191162
2018-08-28T11:04:13.708Z,52.56958
2018-08-28T11:05:29.789Z,53.137207
2018-08-28T11:06:45.755Z,53.137207
2018-08-28T11:08:01.836Z,53.735352
2018-08-28T11:09:17.739Z,53.833008
2018-08-28T11:10:33.670Z,52.941895
2018-08-28T11:11:49.714Z,53.411865
2018-08-28T11:13:05.789Z,52.941895
2018-08-28T11:14:21.872Z,52.642822
2018-08-28T11:15:37.923Z,54.034424
2018-08-28T11:16:53.863Z,52.941895
2018-08-28T11:18:09.939Z,54.455566
2018-08-28T11:19:25.921Z,53.735352
2018-08-28T11:20:41.815Z,54.406738
2018-08-28T11:21:57.723Z,54.278564
2018-08-28T11:23:13.766Z,53.936768
2018-08-28T11:24:29.718Z,54.931641
2018-08-28T11:25:45.779Z,54.705811
2018-08-28T11:27:01.861Z,54.705811
2018-08-28T11:28:17.887Z,54.034424
2018-08-28T11:29:33.824Z,54.01001
2018-08-28T11:30:49.745Z,53.485107
2018-08-28T11:32:05.681Z,53.857422
2018-08-28T11:33:21.689Z,53.686523
2018-08-28T11:34:37.613Z,53.387451
2018-08-28T11:35:53.738Z,53.656006
2018-08-28T11:37:09.732Z,55.444336
2018-08-28T11:38:25.905Z,54.650879
2018-08-28T11:39:41.820Z,55.944824
2018-08-28T11:40:57.782Z,55.047607
2018-08-28T11:42:13.744Z,54.351807
2018-08-28T11:43:29.739Z,53.759766
2018-08-28T11:44:45.706Z,54.675293
2018-08-28T11:46:01.636Z,55.273438
2018-08-28T11:47:17.725Z,55.200195
2018-08-28T11:48:33.689Z,54.107666
2018-08-28T11:49:49.764Z,54.47998
2018-08-28T11:51:05.724Z,53.881836
2018-08-28T11:52:21.649Z,55.175781
2018-08-28T11:53:37.720Z,54.455566
2018-08-28T11:54:53.672Z,52.990723
2018-08-28T11:56:09.706Z,54.901123
2018-08-28T11:57:25.711Z,54.779053
2018-08-28T11:58:41.650Z,54.748535
2018-08-28T11:59:57.683Z,53.436279
2018-08-28T12:01:13.650Z,53.631592
2018-08-28T12:02:29.605Z,54.02832
2018-08-28T12:03:45.555Z,52.838135
2018-08-28T12:05:01.796Z,51.275635
2018-08-28T12:06:17.548Z,51.568604
2018-08-28T12:07:33.510Z,52.667236
2018-08-28T12:08:49.400Z,52.539062
2018-08-28T12:10:05.352Z,52.313232
2018-08-28T12:11:21.319Z,52.587891
2018-08-28T12:12:40.632Z,52.020264
2018-08-28T12:13:56.660Z,52.288818
2018-08-28T12:15:12.780Z,53.930664
2018-08-28T12:16:28.664Z,53.704834
2018-08-28T12:17:44.613Z,53.308105
2018-08-28T12:19:00.540Z,53.90625
2018-08-28T12:20:16.543Z,53.778076
2018-08-28T12:21:33.250Z,52.862549
2018-08-28T12:22:49.243Z,53.210449
2018-08-28T12:24:05.157Z,54.02832
2018-08-28T12:25:21.129Z,54.25415
2018-08-28T12:26:37.130Z,54.779053
2018-08-28T12:27:54.038Z,54.949951
2018-08-28T12:29:10.002Z,53.063965
2018-08-28T12:30:26.015Z,52.044678
2018-08-28T12:31:41.957Z,52.288818
2018-08-28T12:32:57.868Z,51.574707
2018-08-28T12:34:13.822Z,49.591064
2018-08-28T12:35:29.753Z,52.11792
2018-08-28T12:36:45.809Z,54.25415
2018-08-28T12:38:01.777Z,54.156494
2018-08-28T12:39:17.729Z,55.743408
2018-08-28T12:40:33.649Z,54.852295
2018-08-28T12:41:49.579Z,55.12085
2018-08-28T12:43:05.626Z,53.778076
2018-08-28T12:44:21.656Z,52.441406
2018-08-28T12:45:37.553Z,52.734375
2018-08-28T12:46:53.570Z,52.46582
2018-08-28T12:48:09.544Z,52.337646
2018-08-28T12:49:25.537Z,51.000977
2018-08-28T12:50:41.797Z,51.000977
2018-08-28T12:51:57.742Z,50.90332
2018-08-28T12:53:13.758Z,49.914551
2018-08-28T12:54:29.733Z,50.90332
2018-08-28T12:55:45.752Z,48.22998
2018-08-28T12:57:01.678Z,48.822021
2018-08-28T12:58:17.602Z,48.773193
2018-08-28T12:59:33.533Z,49.56665
2018-08-28T13:00:49.693Z,48.669434
2018-08-28T13:02:05.445Z,48.968506
2018-08-28T13:03:21.395Z,48.150635
2018-08-28T13:04:37.558Z,47.753906
2018-08-28T13:05:53.495Z,48.547363
2018-08-28T13:07:09.625Z,48.529053
2018-08-28T13:08:25.507Z,47.711182
2018-08-28T13:09:41.445Z,48.480225
2018-08-28T13:10:57.456Z,48.278809
2018-08-28T13:12:13.375Z,48.675537
2018-08-28T13:13:29.319Z,47.784424
2018-08-28T13:14:45.307Z,47.290039
2018-08-28T13:16:01.281Z,48.10791
2018-08-28T13:17:17.306Z,48.529053
2018-08-28T13:18:33.267Z,48.504639
2018-08-28T13:19:49.330Z,48.797607
2018-08-28T13:21:05.355Z,48.699951
2018-08-28T13:22:21.368Z,49.121094
2018-08-28T13:23:37.452Z,49.615479
2018-08-28T13:24:53.409Z,49.517822
2018-08-28T13:26:09.491Z,50.109863
2018-08-28T13:27:25.375Z,49.291992
2018-08-28T13:28:41.341Z,49.194336
2018-08-28T13:29:57.299Z,49.09668
2018-08-28T13:31:13.221Z,49.072266
2018-08-28T13:32:29.161Z,48.999023
2018-08-28T13:33:45.106Z,49.194336
2018-08-28T13:35:01.021Z,48.675537
2018-08-28T13:36:17.019Z,49.194336
2018-08-28T13:37:33.125Z,48.382568
2018-08-28T13:38:49.038Z,47.888184
2018-08-28T13:40:05.048Z,47.86377
2018-08-28T13:41:21.117Z,47.271729
2018-08-28T13:42:37.035Z,48.480225
2018-08-28T13:43:53.970Z,48.181152
2018-08-28T13:45:09.922Z,48.260498
2018-08-28T13:46:25.931Z,47.442627
2018-08-28T13:47:41.874Z,47.741699
2018-08-28T13:48:57.784Z,47.961426
2018-08-28T13:50:13.818Z,48.33374
2018-08-28T13:51:29.989Z,48.754883
2018-08-28T13:52:46.044Z,47.937012
2018-08-28T13:54:02.158Z,47.912598
2018-08-28T13:55:18.065Z,47.045898
2018-08-28T13:56:34.070Z,47.442627
2018-08-28T13:57:50.054Z,48.034668
2018-08-28T13:59:06.008Z,48.034668
2018-08-28T14:00:22.009Z,47.961426
2018-08-28T14:01:38.087Z,47.961426
2018-08-28T14:02:54.160Z,48.675537
2018-08-28T14:04:10.075Z,48.974609
2018-08-28T14:05:26.126Z,49.44458
2018-08-28T14:06:42.144Z,50.238037
2018-08-28T14:07:58.139Z,50.115967
2018-08-28T14:09:14.213Z,49.987793
2018-08-28T14:10:30.650Z,49.816895
2018-08-28T14:11:47.304Z,50.457764
2018-08-28T14:13:03.294Z,49.890137
2018-08-28T14:14:19.398Z,49.79248
2018-08-28T14:15:35.358Z,51.098633
2018-08-28T14:16:51.457Z,51.202393
2018-08-28T14:18:07.468Z,51.098633
2018-08-28T14:19:23.491Z,52.386475
2018-08-28T14:22:20.431Z,49.542236
2018-08-28T14:23:36.485Z,50.457764
2018-08-28T14:24:52.459Z,50.55542
2018-08-28T14:26:08.471Z,51.348877
2018-08-28T14:27:24.492Z,52.337646
2018-08-28T14:28:40.552Z,54.144287
2018-08-28T14:29:56.644Z,54.541016
2018-08-28T14:31:12.620Z,53.918457
2018-08-28T14:32:28.698Z,53.918457
2018-08-28T14:33:44.876Z,54.144287
2018-08-28T14:35:00.862Z,55.828857
2018-08-28T14:36:16.872Z,54.840088